createdAt,value
2016-08-17T00:00:42.252Z,14.32
2016-08-17T00:01:41.541Z,14.38
2016-08-17T00:02:40.823Z,14.34
2016-08-17T00:03:41.525Z,14.28
2016-08-17T00:04:40.806Z,14.28
2016-08-17T00:05:40.807Z,14.25
2016-08-17T00:06:40.775Z,14.24
2016-08-17T00:07:41.475Z,14.28
2016-08-17T00:08:40.758Z,14.31
2016-08-17T00:09:41.454Z,14.19
2016-08-17T00:10:40.741Z,14.28
2016-08-17T00:11:40.729Z,14.24
2016-08-17T00:12:41.427Z,14.31
2016-08-17T00:13:41.417Z,14.27
2016-08-17T00:14:40.696Z,14.13
2016-08-17T00:15:40.686Z,14.12
2016-08-17T00:16:41.390Z,14.13
2016-08-17T00:17:40.670Z,14.1
2016-08-17T00:18:41.383Z,14.13
2016-08-17T00:19:40.645Z,14.09
2016-08-17T00:20:40.649Z,14.13
2016-08-17T00:21:41.331Z,14.14
2016-08-17T00:22:42.028Z,14.09
2016-08-17T00:23:41.308Z,14.09
2016-08-17T00:24:41.311Z,14.01
2016-08-17T00:25:40.595Z,14.04
2016-08-17T00:26:40.593Z,14.04
2016-08-17T00:27:41.988Z,14.02
2016-08-17T00:28:41.271Z,14.02
2016-08-17T00:29:41.263Z,13.99
2016-08-17T00:30:41.257Z,13.94
2016-08-17T00:31:41.233Z,13.94
2016-08-17T00:32:41.230Z,13.89
2016-08-17T00:33:41.232Z,13.91
2016-08-17T00:34:41.221Z,13.96
2016-08-17T00:35:41.909Z,13.94
2016-08-17T00:36:41.187Z,13.92
2016-08-17T00:37:41.179Z,13.99
2016-08-17T00:38:40.452Z,13.89
2016-08-17T00:39:41.169Z,13.99
2016-08-17T00:40:41.864Z,13.95
2016-08-17T00:41:41.151Z,13.99
2016-08-17T00:42:41.128Z,13.98
2016-08-17T00:43:41.134Z,13.92
2016-08-17T00:44:41.102Z,13.96
2016-08-17T00:45:41.094Z,13.95
2016-08-17T00:46:40.368Z,13.95
2016-08-17T00:47:40.360Z,13.96
2016-08-17T00:48:41.052Z,13.94
2016-08-17T00:49:40.345Z,13.83
2016-08-17T00:50:41.039Z,13.91
2016-08-17T00:51:40.320Z,13.87
2016-08-17T00:52:40.303Z,13.79
2016-08-17T00:53:41.017Z,13.83
2016-08-17T00:54:40.992Z,13.83
2016-08-17T00:55:40.983Z,13.83
2016-08-17T00:56:40.262Z,13.83
2016-08-17T00:57:40.968Z,13.92
2016-08-17T00:58:40.256Z,13.84
2016-08-17T00:59:40.939Z,13.81
2016-08-17T01:00:40.926Z,13.91
2016-08-17T01:01:40.919Z,13.84
2016-08-17T01:02:40.200Z,13.92
2016-08-17T01:03:40.904Z,13.88
2016-08-17T01:04:40.176Z,13.84
2016-08-17T01:05:40.879Z,13.79
2016-08-17T01:06:40.175Z,13.87
2016-08-17T01:07:40.855Z,13.81
2016-08-17T01:08:40.844Z,13.92
2016-08-17T01:09:40.853Z,13.88
2016-08-17T01:10:40.822Z,13.91
2016-08-17T01:11:40.814Z,13.95
2016-08-17T01:12:40.804Z,13.98
2016-08-17T01:13:40.796Z,13.99
2016-08-17T01:14:40.803Z,13.99
2016-08-17T01:15:40.282Z,14.02
2016-08-17T01:16:40.759Z,14.07
2016-08-17T01:17:40.762Z,14.09
2016-08-17T01:18:40.057Z,14.09
2016-08-17T01:19:40.738Z,14.16
2016-08-17T01:20:40.727Z,14.14
2016-08-17T01:21:40.724Z,14.21
2016-08-17T01:22:41.409Z,14.27
2016-08-17T01:23:39.986Z,14.29
2016-08-17T01:24:41.401Z,14.27
2016-08-17T01:25:40.671Z,14.31
2016-08-17T01:26:41.388Z,14.28
2016-08-17T01:27:39.949Z,14.27
2016-08-17T01:28:39.930Z,14.31
2016-08-17T01:29:40.633Z,14.37
2016-08-17T01:30:39.910Z,14.35
2016-08-17T01:31:40.620Z,14.37
2016-08-17T01:32:39.889Z,14.37
2016-08-17T01:33:39.873Z,14.38
2016-08-17T01:34:41.291Z,14.37
2016-08-17T01:35:40.565Z,14.38
2016-08-17T01:36:39.843Z,14.43
2016-08-17T01:37:40.544Z,14.43
2016-08-17T01:38:39.824Z,14.35
2016-08-17T01:39:39.820Z,14.44
2016-08-17T01:40:39.813Z,14.43
2016-08-17T01:41:40.505Z,14.34
2016-08-17T01:42:39.777Z,14.38
2016-08-17T01:43:41.193Z,14.35
2016-08-17T01:44:39.773Z,14.32
2016-08-17T01:45:40.462Z,14.35
2016-08-17T01:46:40.446Z,14.34
2016-08-17T01:47:40.438Z,14.35
2016-08-17T01:48:40.428Z,14.35
2016-08-17T01:49:40.417Z,14.35
2016-08-17T01:50:39.700Z,14.34
2016-08-17T01:51:39.694Z,14.32
2016-08-17T01:52:41.106Z,14.32
2016-08-17T01:53:39.671Z,14.32
2016-08-17T01:54:39.663Z,14.37
2016-08-17T01:55:39.646Z,14.37
2016-08-17T01:56:39.649Z,14.32
2016-08-17T01:57:39.641Z,14.34
2016-08-17T01:58:40.317Z,14.34
2016-08-17T01:59:40.311Z,14.32
2016-08-17T02:00:39.601Z,14.39
2016-08-17T02:01:39.595Z,14.34
2016-08-17T02:02:39.581Z,14.35
2016-08-17T02:03:40.269Z,14.32
2016-08-17T02:04:39.560Z,14.37
2016-08-17T02:05:40.249Z,14.2
2016-08-17T02:06:40.238Z,14.2
2016-08-17T02:07:39.522Z,14.19
2016-08-17T02:08:40.226Z,14.21
2016-08-17T02:09:39.503Z,14.17
2016-08-17T02:10:40.903Z,14.27
2016-08-17T02:11:40.198Z,14.27
2016-08-17T02:12:40.184Z,14.19
2016-08-17T02:13:39.469Z,14.24
2016-08-17T02:14:40.163Z,14.25
2016-08-17T02:15:40.150Z,14.13
2016-08-17T02:16:39.449Z,14.16
2016-08-17T02:17:39.428Z,14.16
2016-08-17T02:18:40.819Z,14.16
2016-08-17T02:19:39.396Z,14.19
2016-08-17T02:20:39.387Z,14.07
2016-08-17T02:21:40.079Z,14.06
2016-08-17T02:22:40.080Z,14.09
2016-08-17T02:23:39.356Z,14.07
2016-08-17T02:24:40.761Z,14.07
2016-08-17T02:25:39.347Z,14.06
2016-08-17T02:26:39.322Z,13.94
2016-08-17T02:27:39.311Z,13.96
2016-08-17T02:28:40.008Z,13.99
2016-08-17T02:29:40.000Z,13.88
2016-08-17T02:30:40.695Z,13.92
2016-08-17T02:31:39.269Z,13.84
2016-08-17T02:32:39.968Z,13.89
2016-08-17T02:33:39.250Z,13.95
2016-08-17T02:34:39.237Z,13.8
2016-08-17T02:35:39.933Z,13.77
2016-08-17T02:36:39.219Z,13.83
2016-08-17T02:37:39.212Z,13.79
2016-08-17T02:38:39.907Z,13.87
2016-08-17T02:39:40.597Z,13.74
2016-08-17T02:40:39.175Z,13.71
2016-08-17T02:41:39.163Z,13.73
2016-08-17T02:42:39.157Z,13.67
2016-08-17T02:43:39.143Z,13.71
2016-08-17T02:44:39.841Z,13.65
2016-08-17T02:45:39.120Z,13.71
2016-08-17T02:46:39.111Z,13.56
2016-08-17T02:47:39.100Z,13.63
2016-08-17T02:48:39.798Z,13.55
2016-08-17T02:49:39.786Z,13.56
2016-08-17T02:50:39.070Z,13.51
2016-08-17T02:51:39.766Z,13.54
2016-08-17T02:52:39.047Z,13.49
2016-08-17T02:53:39.045Z,13.52
2016-08-17T02:54:39.736Z,13.44
2016-08-17T02:55:39.726Z,13.3
2016-08-17T02:56:39.713Z,13.4
2016-08-17T02:57:39.708Z,13.32
2016-08-17T02:58:38.988Z,13.36
2016-08-17T02:59:39.680Z,13.3
2016-08-17T03:00:39.670Z,13.32
2016-08-17T03:01:39.667Z,13.18
2016-08-17T03:02:39.652Z,13.27
2016-08-17T03:03:39.639Z,13.21
2016-08-17T03:04:39.627Z,13.22
2016-08-17T03:05:39.617Z,13.24
2016-08-17T03:06:38.905Z,13.14
2016-08-17T03:07:39.599Z,13.14
2016-08-17T03:08:39.592Z,13.09
2016-08-17T03:09:39.581Z,13.04
2016-08-17T03:10:38.856Z,13.07
2016-08-17T03:11:40.265Z,13.12
2016-08-17T03:12:39.540Z,13.07
2016-08-17T03:13:39.527Z,12.99
2016-08-17T03:14:38.813Z,13.02
2016-08-17T03:15:39.509Z,13
2016-08-17T03:16:39.515Z,12.97
2016-08-17T03:17:40.211Z,12.96
2016-08-17T03:18:38.777Z,12.95
2016-08-17T03:19:39.467Z,12.99
2016-08-17T03:20:39.453Z,12.84
2016-08-17T03:21:39.444Z,12.89
2016-08-17T03:22:38.728Z,12.84
2016-08-17T03:23:38.712Z,12.84
2016-08-17T03:24:38.704Z,12.88
2016-08-17T03:25:40.108Z,12.85
2016-08-17T03:26:38.683Z,12.82
2016-08-17T03:27:38.672Z,12.85
2016-08-17T03:28:38.663Z,12.84
2016-08-17T03:29:40.078Z,12.77
2016-08-17T03:30:39.343Z,12.85
2016-08-17T03:31:40.042Z,12.77
2016-08-17T03:32:38.621Z,12.71
2016-08-17T03:33:38.608Z,12.79
2016-08-17T03:34:38.597Z,12.74
2016-08-17T03:35:39.291Z,12.7
2016-08-17T03:36:39.280Z,12.7
2016-08-17T03:37:39.977Z,12.66
2016-08-17T03:38:38.554Z,12.67
2016-08-17T03:39:39.247Z,12.66
2016-08-17T03:40:38.542Z,12.67
2016-08-17T03:41:39.929Z,12.7
2016-08-17T03:42:39.213Z,12.67
2016-08-17T03:43:38.494Z,12.67
2016-08-17T03:44:39.894Z,12.67
2016-08-17T03:45:39.182Z,12.67
2016-08-17T03:46:38.473Z,12.69
2016-08-17T03:47:38.449Z,12.66
2016-08-17T03:48:39.148Z,12.56
2016-08-17T03:49:38.425Z,12.64
2016-08-17T03:50:38.415Z,12.66
2016-08-17T03:51:38.400Z,12.67
2016-08-17T03:52:39.103Z,12.67
2016-08-17T03:53:39.089Z,12.62
2016-08-17T03:54:39.790Z,12.57
2016-08-17T03:55:39.067Z,12.57
2016-08-17T03:56:38.347Z,12.6
2016-08-17T03:57:39.047Z,12.48
2016-08-17T03:58:39.764Z,12.49
2016-08-17T03:59:39.024Z,12.45
2016-08-17T04:00:39.011Z,12.51
2016-08-17T04:01:38.296Z,12.48
2016-08-17T04:02:38.991Z,12.39
2016-08-17T04:03:39.684Z,12.46
2016-08-17T04:04:38.964Z,12.51
2016-08-17T04:05:38.962Z,12.49
2016-08-17T04:06:38.942Z,12.42
2016-08-17T04:07:38.226Z,12.37
2016-08-17T04:08:38.219Z,12.45
2016-08-17T04:09:38.205Z,12.34
2016-08-17T04:10:38.191Z,12.38
2016-08-17T04:11:38.887Z,12.37
2016-08-17T04:12:39.080Z,12.42
2016-08-17T04:13:39.572Z,12.37
2016-08-17T04:14:38.152Z,12.44
2016-08-17T04:15:38.850Z,12.34
2016-08-17T04:16:38.125Z,12.39
2016-08-17T04:17:38.822Z,12.33
2016-08-17T04:18:38.829Z,12.39
2016-08-17T04:19:38.089Z,12.31
2016-08-17T04:20:38.083Z,12.38
2016-08-17T04:21:38.776Z,12.3
2016-08-17T04:22:38.050Z,12.23
2016-08-17T04:23:38.046Z,12.37
2016-08-17T04:24:39.447Z,12.29
2016-08-17T04:25:38.023Z,12.27
2016-08-17T04:26:38.722Z,12.26
2016-08-17T04:27:38.700Z,12.21
2016-08-17T04:28:37.996Z,12.29
2016-08-17T04:29:37.975Z,12.23
2016-08-17T04:30:37.965Z,12.19
2016-08-17T04:31:37.953Z,12.21
2016-08-17T04:32:37.941Z,12.2
2016-08-17T04:33:38.635Z,12.29
2016-08-17T04:34:39.349Z,12.21
2016-08-17T04:35:39.328Z,12.24
2016-08-17T04:36:38.599Z,12.2
2016-08-17T04:37:38.598Z,12.2
2016-08-17T04:38:37.868Z,12.21
2016-08-17T04:39:37.866Z,12.24
2016-08-17T04:40:37.851Z,12.16
2016-08-17T04:41:38.554Z,12.15
2016-08-17T04:42:38.540Z,12.21
2016-08-17T04:43:37.813Z,12.16
2016-08-17T04:44:37.808Z,12.26
2016-08-17T04:45:38.500Z,12.2
2016-08-17T04:46:38.490Z,12.15
2016-08-17T04:47:37.770Z,12.21
2016-08-17T04:48:38.464Z,12.15
2016-08-17T04:49:39.160Z,12.23
2016-08-17T04:50:38.477Z,12.2
2016-08-17T04:51:38.507Z,12.19
2016-08-17T04:52:37.718Z,12.19
2016-08-17T04:53:37.697Z,12.16
2016-08-17T04:54:39.112Z,12.24
2016-08-17T04:55:38.408Z,12.23
2016-08-17T04:56:37.665Z,12.23
2016-08-17T04:57:38.357Z,12.24
2016-08-17T04:58:39.052Z,12.24
2016-08-17T04:59:39.045Z,12.21
2016-08-17T05:00:38.378Z,12.41
2016-08-17T05:01:38.312Z,12.42
2016-08-17T05:02:37.603Z,12.45
2016-08-17T05:03:37.588Z,12.52
2016-08-17T05:04:38.337Z,12.48
2016-08-17T05:05:38.980Z,12.49
2016-08-17T05:06:37.550Z,12.49
2016-08-17T05:07:38.965Z,12.46
2016-08-17T05:08:38.239Z,12.38
2016-08-17T05:09:37.517Z,12.48
2016-08-17T05:10:38.212Z,12.51
2016-08-17T05:11:38.202Z,12.52
2016-08-17T05:12:38.191Z,12.64
2016-08-17T05:13:37.478Z,12.63
2016-08-17T05:14:38.876Z,12.69
2016-08-17T05:15:38.172Z,12.59
2016-08-17T05:16:37.436Z,12.64
2016-08-17T05:17:38.842Z,12.74
2016-08-17T05:18:38.128Z,12.69
2016-08-17T05:19:38.817Z,12.71
2016-08-17T05:20:38.102Z,12.77
2016-08-17T05:21:38.792Z,12.82
2016-08-17T05:22:37.368Z,12.81
2016-08-17T05:23:38.778Z,12.84
2016-08-17T05:24:37.347Z,12.82
2016-08-17T05:25:37.338Z,12.88
2016-08-17T05:26:38.032Z,13
2016-08-17T05:27:38.025Z,12.97
2016-08-17T05:28:37.301Z,13
2016-08-17T05:29:37.303Z,13.06
2016-08-17T05:30:37.985Z,13.12
2016-08-17T05:31:37.272Z,13.12
2016-08-17T05:32:37.963Z,13.06
2016-08-17T05:33:37.955Z,13.09
2016-08-17T05:34:37.952Z,13.12
2016-08-17T05:35:37.934Z,13.24
2016-08-17T05:36:37.220Z,13.24
2016-08-17T05:37:37.204Z,13.3
2016-08-17T05:38:37.187Z,13.36
2016-08-17T05:39:37.182Z,13.32
2016-08-17T05:40:37.879Z,13.41
2016-08-17T05:41:37.866Z,13.4
2016-08-17T05:42:37.856Z,13.43
2016-08-17T05:43:37.136Z,13.49
2016-08-17T05:44:37.836Z,13.55
2016-08-17T05:45:37.125Z,13.54
2016-08-17T05:46:37.812Z,13.56
2016-08-17T05:47:37.795Z,13.63
2016-08-17T05:48:38.500Z,13.58
2016-08-17T05:49:37.776Z,13.61
2016-08-17T05:50:37.766Z,13.67
2016-08-17T05:51:37.052Z,13.71
2016-08-17T05:52:37.745Z,13.73
2016-08-17T05:53:37.748Z,13.83
2016-08-17T05:54:38.426Z,13.79
2016-08-17T05:55:37.003Z,13.77
2016-08-17T05:56:36.990Z,13.79
2016-08-17T05:57:38.405Z,13.79
2016-08-17T05:58:36.972Z,13.91
2016-08-17T05:59:37.668Z,13.77
2016-08-17T06:00:37.714Z,13.83
2016-08-17T06:01:36.939Z,13.88
2016-08-17T06:02:37.632Z,13.87
2016-08-17T06:03:37.623Z,13.92
2016-08-17T06:04:36.909Z,13.95
2016-08-17T06:05:36.904Z,13.91
2016-08-17T06:06:36.890Z,14.01
2016-08-17T06:07:36.876Z,14.04
2016-08-17T06:08:36.866Z,14.04
2016-08-17T06:09:38.272Z,14.09
2016-08-17T06:10:37.549Z,14.07
2016-08-17T06:11:36.830Z,14.09
2016-08-17T06:12:37.529Z,14.17
2016-08-17T06:13:37.525Z,14.14
2016-08-17T06:14:37.519Z,14.14
2016-08-17T06:15:37.495Z,14.21
2016-08-17T06:16:36.781Z,14.21
2016-08-17T06:17:36.770Z,14.27
2016-08-17T06:18:37.469Z,14.27
2016-08-17T06:19:37.458Z,14.31
2016-08-17T06:20:36.742Z,14.32
2016-08-17T06:21:36.740Z,14.24
2016-08-17T06:22:37.430Z,14.38
2016-08-17T06:23:36.709Z,14.39
2016-08-17T06:24:37.412Z,14.39
2016-08-17T06:25:37.392Z,14.44
2016-08-17T06:26:36.677Z,14.42
2016-08-17T06:27:36.670Z,14.46
2016-08-17T06:28:36.658Z,14.47
2016-08-17T06:29:37.365Z,14.49
2016-08-17T06:30:38.047Z,14.47
2016-08-17T06:31:38.039Z,14.49
2016-08-17T06:32:37.321Z,14.61
2016-08-17T06:33:37.316Z,14.56
2016-08-17T06:34:37.304Z,14.68
2016-08-17T06:35:36.585Z,14.67
2016-08-17T06:36:36.576Z,14.69
2016-08-17T06:37:37.268Z,14.69
2016-08-17T06:38:36.553Z,14.72
2016-08-17T06:39:36.548Z,14.78
2016-08-17T06:40:36.536Z,14.86
2016-08-17T06:41:37.940Z,14.88
2016-08-17T06:42:36.514Z,14.94
2016-08-17T06:43:37.922Z,15.02
2016-08-17T06:44:37.202Z,14.99
2016-08-17T06:45:36.491Z,15.12
2016-08-17T06:46:37.181Z,15.03
2016-08-17T06:47:37.172Z,15.12
2016-08-17T06:48:36.456Z,15.21
2016-08-17T06:49:37.154Z,15.24
2016-08-17T06:50:37.141Z,15.26
2016-08-17T06:51:36.433Z,15.31
2016-08-17T06:52:36.430Z,15.28
2016-08-17T06:53:37.130Z,15.36
2016-08-17T06:54:37.119Z,15.3
2016-08-17T06:55:37.094Z,15.36
2016-08-17T06:56:37.082Z,15.46
2016-08-17T06:57:36.366Z,15.43
2016-08-17T06:58:37.064Z,15.52
2016-08-17T06:59:37.053Z,15.48
2016-08-17T07:00:36.335Z,15.51
2016-08-17T07:01:37.034Z,15.61
2016-08-17T07:02:36.317Z,15.64
2016-08-17T07:03:37.720Z,15.75
2016-08-17T07:04:37.237Z,15.68
2016-08-17T07:05:36.287Z,15.82
2016-08-17T07:06:36.982Z,15.93
2016-08-17T07:07:36.980Z,15.94
2016-08-17T07:08:37.673Z,15.88
2016-08-17T07:09:36.957Z,15.99
2016-08-17T07:10:36.447Z,16.04
2016-08-17T07:11:36.941Z,16.07
2016-08-17T07:12:36.231Z,16.14
2016-08-17T07:13:36.924Z,16.18
2016-08-17T07:14:37.620Z,16.22
2016-08-17T07:15:36.902Z,16.26
2016-08-17T07:16:36.180Z,16.27
2016-08-17T07:17:37.590Z,16.3
2016-08-17T07:18:36.871Z,16.31
2016-08-17T07:19:37.061Z,16.34
2016-08-17T07:20:36.855Z,16.49
2016-08-17T07:21:36.137Z,16.5
2016-08-17T07:22:36.135Z,16.55
2016-08-17T07:23:36.829Z,16.5
2016-08-17T07:24:36.108Z,16.62
2016-08-17T07:25:36.098Z,16.53
2016-08-17T07:26:36.794Z,16.68
2016-08-17T07:27:36.787Z,16.75
2016-08-17T07:28:36.781Z,16.83
2016-08-17T07:29:36.064Z,16.86
2016-08-17T07:30:36.756Z,16.78
2016-08-17T07:31:37.457Z,16.86
2016-08-17T07:32:36.048Z,16.83
2016-08-17T07:33:36.032Z,16.88
2016-08-17T07:34:36.021Z,16.83
2016-08-17T07:35:37.435Z,16.93
2016-08-17T07:36:36.013Z,16.9
2016-08-17T07:37:36.001Z,16.89
2016-08-17T07:38:37.396Z,17.04
2016-08-17T07:39:36.686Z,17.11
2016-08-17T07:40:36.667Z,17.08
2016-08-17T07:41:35.959Z,17.08
2016-08-17T07:42:36.658Z,17.18
2016-08-17T07:43:36.647Z,17.28
2016-08-17T07:44:36.633Z,17.22
2016-08-17T07:45:36.627Z,17.3
2016-08-17T07:46:36.618Z,17.36
2016-08-17T07:47:35.901Z,17.36
2016-08-17T07:48:35.915Z,17.43
2016-08-17T07:49:37.302Z,17.54
2016-08-17T07:50:35.876Z,17.55
2016-08-17T07:51:36.572Z,17.44
2016-08-17T07:52:36.571Z,17.48
2016-08-17T07:53:37.258Z,17.55
2016-08-17T07:54:36.548Z,17.53
2016-08-17T07:55:36.538Z,17.57
2016-08-17T07:56:36.529Z,17.64
2016-08-17T07:57:35.825Z,17.67
2016-08-17T07:58:36.514Z,17.64
2016-08-17T07:59:35.799Z,17.79
2016-08-17T08:00:36.502Z,17.81
2016-08-17T08:01:37.192Z,17.78
2016-08-17T08:02:36.482Z,17.81
2016-08-17T08:03:36.472Z,17.82
2016-08-17T08:04:35.754Z,17.87
2016-08-17T08:05:35.750Z,17.89
2016-08-17T08:06:37.153Z,17.88
2016-08-17T08:07:35.726Z,17.97
2016-08-17T08:08:35.727Z,18.03
2016-08-17T08:09:35.718Z,18.06
2016-08-17T08:10:36.407Z,18
2016-08-17T08:11:35.691Z,18.07
2016-08-17T08:12:35.686Z,18.09
2016-08-17T08:13:35.678Z,18.09
2016-08-17T08:14:35.668Z,18.09
2016-08-17T08:15:36.365Z,18.17
2016-08-17T08:16:36.360Z,18.28
2016-08-17T08:17:36.351Z,18.33
2016-08-17T08:18:36.344Z,18.55
2016-08-17T08:19:36.337Z,19.46
2016-08-17T08:20:36.330Z,20.74
2016-08-17T08:21:35.612Z,21.79
2016-08-17T08:22:35.609Z,22.57
2016-08-17T08:23:36.311Z,23.38
2016-08-17T08:24:35.596Z,24.02
2016-08-17T08:25:35.591Z,24.49
2016-08-17T08:26:36.301Z,25
2016-08-17T08:27:36.288Z,25.56
2016-08-17T08:28:36.290Z,25.99
2016-08-17T08:29:36.286Z,26.29
2016-08-17T08:30:35.571Z,26.35
2016-08-17T08:31:35.578Z,26.49
2016-08-17T08:32:36.270Z,25.91
2016-08-17T08:33:36.265Z,25.71
2016-08-17T08:34:36.257Z,25.68
2016-08-17T08:35:36.260Z,25.19
2016-08-17T08:36:36.254Z,25
2016-08-17T08:37:35.542Z,25.02
2016-08-17T08:38:36.257Z,25.31
2016-08-17T08:39:35.537Z,25.34
2016-08-17T08:40:36.947Z,25.12
2016-08-17T08:41:35.533Z,24.77
2016-08-17T08:42:36.232Z,24.42
2016-08-17T08:43:35.520Z,24.39
2016-08-17T08:44:36.236Z,24.57
2016-08-17T08:45:35.509Z,24.71
2016-08-17T08:46:36.219Z,24.76
2016-08-17T08:47:36.221Z,24.94
2016-08-17T08:48:35.521Z,25.53
2016-08-17T08:49:35.500Z,25.62
2016-08-17T08:50:35.494Z,25.57
2016-08-17T08:51:36.202Z,25.47
2016-08-17T08:52:35.492Z,25.07
2016-08-17T08:53:36.186Z,25.05
2016-08-17T08:54:35.492Z,25.06
2016-08-17T08:55:35.477Z,24.98
2016-08-17T08:56:36.190Z,24.94
2016-08-17T08:57:36.179Z,24.98
2016-08-17T08:58:36.877Z,24.82
2016-08-17T08:59:36.174Z,24.56
2016-08-17T09:00:36.158Z,24.2
2016-08-17T09:01:35.441Z,23.79
2016-08-17T09:02:36.166Z,23.62
2016-08-17T09:03:36.147Z,23.57
2016-08-17T09:04:36.142Z,23.34
2016-08-17T09:05:36.847Z,23.17
2016-08-17T09:06:36.138Z,22.96
2016-08-17T09:07:36.131Z,22.71
2016-08-17T09:08:36.119Z,22.64
2016-08-17T09:09:35.408Z,22.46
2016-08-17T09:10:36.112Z,22.25
2016-08-17T09:11:36.108Z,22.12
2016-08-17T09:12:36.102Z,22.19
2016-08-17T09:13:36.799Z,22.34
2016-08-17T09:14:35.384Z,22.27
2016-08-17T09:15:35.378Z,22.34
2016-08-17T09:16:35.373Z,22.49
2016-08-17T09:17:36.072Z,22.59
2016-08-17T09:18:35.451Z,22.6
2016-08-17T09:19:36.079Z,22.59
2016-08-17T09:20:36.059Z,22.44
2016-08-17T09:21:35.344Z,22.14
2016-08-17T09:22:36.045Z,22.06
2016-08-17T09:23:36.043Z,21.99
2016-08-17T09:24:35.329Z,21.85
2016-08-17T09:25:35.328Z,21.76
2016-08-17T09:26:36.028Z,21.75
2016-08-17T09:27:35.307Z,21.67
2016-08-17T09:28:35.304Z,21.63
2016-08-17T09:29:36.723Z,21.61
2016-08-17T09:30:35.292Z,21.59
2016-08-17T09:31:35.287Z,21.59
2016-08-17T09:32:35.989Z,21.61
2016-08-17T09:33:35.278Z,21.6
2016-08-17T09:34:35.978Z,21.6
2016-08-17T09:35:35.977Z,21.54
2016-08-17T09:36:35.261Z,21.54
2016-08-17T09:37:35.971Z,21.53
2016-08-17T09:38:35.956Z,21.6
2016-08-17T09:39:35.946Z,21.54
2016-08-17T09:40:35.958Z,21.53
2016-08-17T09:41:36.853Z,21.5
2016-08-17T09:42:35.230Z,21.51
2016-08-17T09:43:35.216Z,21.39
2016-08-17T09:44:35.924Z,21.5
2016-08-17T09:45:35.912Z,21.5
2016-08-17T09:46:35.200Z,21.41
2016-08-17T09:47:36.606Z,21.54
2016-08-17T09:48:35.199Z,21.41
2016-08-17T09:49:35.180Z,21.38
2016-08-17T09:50:35.186Z,21.39
2016-08-17T09:51:35.169Z,21.42
2016-08-17T09:52:35.873Z,21.39
2016-08-17T09:53:36.575Z,21.36
2016-08-17T09:54:35.862Z,21.34
2016-08-17T09:55:36.556Z,21.32
2016-08-17T09:56:35.139Z,21.34
2016-08-17T09:57:35.150Z,21.3
2016-08-17T09:58:35.124Z,21.23
2016-08-17T09:59:35.119Z,21.26
2016-08-17T10:00:35.117Z,21.27
2016-08-17T10:01:35.107Z,21.36
2016-08-17T10:02:35.101Z,21.39
2016-08-17T10:03:35.798Z,21.48
2016-08-17T10:04:35.800Z,21.51
2016-08-17T10:05:36.515Z,21.54
2016-08-17T10:06:36.708Z,21.63
2016-08-17T10:07:35.779Z,21.66
2016-08-17T10:08:36.479Z,21.69
2016-08-17T10:09:35.776Z,21.63
2016-08-17T10:10:35.761Z,21.72
2016-08-17T10:11:36.477Z,21.59
2016-08-17T10:12:36.487Z,21.66
2016-08-17T10:13:35.762Z,21.59
2016-08-17T10:14:35.030Z,21.64
2016-08-17T10:15:36.462Z,21.71
2016-08-17T10:16:36.444Z,21.83
2016-08-17T10:17:36.433Z,22.02
2016-08-17T10:18:35.718Z,22.09
2016-08-17T10:19:35.714Z,22.16
2016-08-17T10:20:35.722Z,22.39
2016-08-17T10:21:36.423Z,22.35
2016-08-17T10:22:35.921Z,22.32
2016-08-17T10:23:34.989Z,22.5
2016-08-17T10:24:36.394Z,22.47
2016-08-17T10:25:35.676Z,22.53
2016-08-17T10:26:36.411Z,22.86
2016-08-17T10:27:35.664Z,22.87
2016-08-17T10:28:36.430Z,22.82
2016-08-17T10:29:35.665Z,22.8
2016-08-17T10:30:36.363Z,22.75
2016-08-17T10:31:35.645Z,22.71
2016-08-17T10:32:34.937Z,22.8
2016-08-17T10:33:35.629Z,22.77
2016-08-17T10:34:35.630Z,22.86
2016-08-17T10:35:35.629Z,22.77
2016-08-17T10:36:35.619Z,22.89
2016-08-17T10:37:36.323Z,23.01
2016-08-17T10:38:35.097Z,23.31
2016-08-17T10:39:36.309Z,23.39
2016-08-17T10:40:35.600Z,23.76
2016-08-17T10:41:34.895Z,24.38
2016-08-17T10:42:35.586Z,24.92
2016-08-17T10:43:34.872Z,25.43
2016-08-17T10:44:35.989Z,25.86
2016-08-17T10:45:36.289Z,26.17
2016-08-17T10:46:35.577Z,26.31
2016-08-17T10:47:36.297Z,26.42
2016-08-17T10:48:36.272Z,26.69
2016-08-17T10:49:35.573Z,26.94
2016-08-17T10:50:35.578Z,27.14
2016-08-17T10:51:34.869Z,27.13
2016-08-17T10:52:36.367Z,27.16
2016-08-17T10:53:36.293Z,27.16
2016-08-17T10:54:35.574Z,27.61
2016-08-17T10:55:35.572Z,27.88
2016-08-17T10:56:35.579Z,28.26
2016-08-17T10:57:36.292Z,28.43
2016-08-17T10:58:34.874Z,28.53
2016-08-17T10:59:36.290Z,28.38
2016-08-17T11:00:35.583Z,28.56
2016-08-17T11:01:35.586Z,28.8
2016-08-17T11:02:35.579Z,28.88
2016-08-17T11:03:35.585Z,29
2016-08-17T11:04:34.877Z,29.11
2016-08-17T11:05:35.598Z,29.18
2016-08-17T11:06:34.881Z,29.35
2016-08-17T11:07:35.798Z,29.49
2016-08-17T11:08:34.888Z,29.62
2016-08-17T11:09:36.310Z,29.71
2016-08-17T11:10:36.330Z,29.79
2016-08-17T11:11:34.907Z,29.86
2016-08-17T11:12:34.902Z,29.74
2016-08-17T11:13:34.923Z,29.79
2016-08-17T11:14:34.912Z,29.44
2016-08-17T11:15:35.620Z,29.16
2016-08-17T11:16:35.624Z,29.34
2016-08-17T11:17:35.637Z,29.47
2016-08-17T11:18:35.732Z,29.66
2016-08-17T11:19:34.938Z,29.92
2016-08-17T11:20:35.138Z,30.08
2016-08-17T11:21:35.639Z,30.11
2016-08-17T11:22:34.947Z,30.29
2016-08-17T11:23:35.654Z,30.31
2016-08-17T11:24:36.378Z,30.47
2016-08-17T11:25:34.961Z,30.62
2016-08-17T11:26:36.385Z,30.71
2016-08-17T11:27:35.683Z,30.76
2016-08-17T11:28:35.681Z,30.75
2016-08-17T11:29:34.980Z,30.83
2016-08-17T11:30:35.697Z,30.75
2016-08-17T11:31:35.704Z,29.96
2016-08-17T11:32:35.711Z,29.97
2016-08-17T11:33:35.707Z,30.27
2016-08-17T11:34:35.717Z,29.89
2016-08-17T11:35:35.769Z,30.12
2016-08-17T11:36:36.452Z,30.31
2016-08-17T11:37:35.733Z,30.3
2016-08-17T11:38:35.746Z,30.47
2016-08-17T11:39:35.033Z,30.65
2016-08-17T11:40:35.756Z,30.71
2016-08-17T11:41:35.043Z,31.04
2016-08-17T11:42:35.765Z,31.23
2016-08-17T11:43:35.775Z,31.48
2016-08-17T11:44:35.768Z,31.58
2016-08-17T11:45:35.785Z,31.65
2016-08-17T11:46:35.785Z,31.93
2016-08-17T11:47:35.079Z,32.17
2016-08-17T11:48:35.811Z,32.39
2016-08-17T11:49:35.805Z,32.4
2016-08-17T11:50:35.805Z,31.8
2016-08-17T11:51:35.811Z,31.21
2016-08-17T11:52:35.105Z,31.3
2016-08-17T11:53:35.826Z,31.67
2016-08-17T11:54:35.123Z,31.98
2016-08-17T11:55:35.132Z,32.3
2016-08-17T11:56:35.839Z,32.4
2016-08-17T11:57:35.847Z,32.77
2016-08-17T11:58:35.160Z,32.71
2016-08-17T11:59:35.860Z,32.89
2016-08-17T12:00:35.168Z,33.13
2016-08-17T12:01:35.876Z,33.29
2016-08-17T12:02:35.183Z,33.51
2016-08-17T12:03:35.886Z,33.43
2016-08-17T12:04:36.599Z,33.2
2016-08-17T12:05:35.898Z,33.08
2016-08-17T12:06:36.613Z,32.8
2016-08-17T12:07:35.204Z,32.81
2016-08-17T12:08:36.624Z,33.01
2016-08-17T12:09:36.634Z,33.08
2016-08-17T12:10:36.641Z,33.27
2016-08-17T12:11:35.235Z,33.33
2016-08-17T12:12:35.234Z,33.45
2016-08-17T12:13:35.951Z,33.97
2016-08-17T12:14:35.252Z,34.05
2016-08-17T12:15:35.253Z,34.36
2016-08-17T12:16:35.973Z,34.39
2016-08-17T12:17:35.976Z,34.36
2016-08-17T12:18:35.982Z,34.13
2016-08-17T12:19:35.995Z,34.16
2016-08-17T12:20:36.707Z,34.2
2016-08-17T12:21:36.010Z,34.38
2016-08-17T12:22:35.306Z,34.57
2016-08-17T12:23:36.019Z,34.63
2016-08-17T12:24:35.318Z,34.8
2016-08-17T12:25:36.043Z,34.83
2016-08-17T12:26:36.049Z,34.77
2016-08-17T12:27:36.063Z,34.77
2016-08-17T12:28:35.345Z,34.5
2016-08-17T12:29:36.062Z,34.44
2016-08-17T12:30:35.361Z,34.66
2016-08-17T12:31:36.075Z,34.95
2016-08-17T12:32:35.382Z,35.08
2016-08-17T12:33:36.083Z,35.18
2016-08-17T12:34:35.385Z,35.21
2016-08-17T12:35:36.808Z,35.26
2016-08-17T12:36:35.399Z,35.32
2016-08-17T12:37:36.821Z,35.23
2016-08-17T12:38:36.114Z,35.23
2016-08-17T12:39:35.419Z,35.01
2016-08-17T12:40:36.135Z,35.2
2016-08-17T12:41:35.435Z,35.32
2016-08-17T12:42:35.439Z,35.64
2016-08-17T12:43:36.158Z,35.26
2016-08-17T12:44:36.165Z,35.17
2016-08-17T12:45:36.878Z,35.28
2016-08-17T12:46:36.179Z,35.2
2016-08-17T12:47:36.185Z,35.39
2016-08-17T12:48:36.194Z,35.1
2016-08-17T12:49:35.491Z,34.95
2016-08-17T12:50:35.499Z,35.01
2016-08-17T12:51:36.213Z,35.15
2016-08-17T12:52:36.219Z,34.57
2016-08-17T12:53:35.520Z,34.58
2016-08-17T12:54:35.533Z,34.54
2016-08-17T12:55:36.242Z,34.84